createdAt,value
2019-02-07T00:02:19.567Z,2.60
2019-02-07T00:05:06.636Z,2.70
2019-02-07T00:07:53.296Z,2.90
2019-02-07T00:10:40.215Z,3.00
2019-02-07T00:13:27.030Z,3.00
2019-02-07T00:16:13.820Z,3.00
2019-02-07T00:19:01.161Z,2.80
2019-02-07T00:21:47.772Z,2.70
2019-02-07T00:24:42.501Z,2.70
2019-02-07T00:27:22.111Z,2.70
2019-02-07T00:30:08.907Z,2.90
2019-02-07T00:32:55.399Z,2.90
2019-02-07T00:35:42.398Z,3.00
2019-02-07T00:38:29.624Z,3.00
2019-02-07T00:41:15.985Z,2.90
2019-02-07T00:44:02.832Z,3.00
2019-02-07T00:46:49.629Z,3.00
2019-02-07T00:49:36.552Z,3.00
2019-02-07T00:52:23.343Z,2.80
2019-02-07T00:55:09.389Z,2.70
2019-02-07T00:58:03.380Z,2.50
2019-02-07T01:00:49.962Z,2.20
2019-02-07T01:03:36.643Z,2.00
2019-02-07T01:06:23.449Z,2.00
2019-02-07T01:09:10.533Z,2.20
2019-02-07T01:11:57.471Z,2.30
2019-02-07T01:14:44.248Z,2.30
2019-02-07T01:17:31.810Z,2.00
2019-02-07T01:20:18.839Z,1.70
2019-02-07T01:23:05.852Z,1.70
2019-02-07T01:25:52.544Z,1.90
2019-02-07T01:28:39.148Z,1.90
2019-02-07T01:31:26.411Z,2.00
2019-02-07T01:34:12.760Z,1.90
2019-02-07T01:37:01.352Z,1.80
2019-02-07T01:39:47.564Z,2.00
2019-02-07T01:42:33.911Z,2.00
2019-02-07T01:45:20.849Z,2.00
2019-02-07T01:48:07.636Z,2.10
2019-02-07T01:50:54.503Z,2.10
2019-02-07T01:53:41.609Z,2.00
2019-02-07T01:56:28.025Z,2.10
2019-02-07T01:59:14.980Z,2.00
2019-02-07T02:02:01.348Z,2.00
2019-02-07T02:04:47.691Z,2.00
2019-02-07T02:07:34.687Z,1.70
2019-02-07T02:10:21.388Z,1.70
2019-02-07T02:13:08.536Z,1.80
2019-02-07T02:15:55.259Z,1.80
2019-02-07T02:18:42.173Z,1.80
2019-02-07T02:21:28.683Z,1.70
2019-02-07T02:24:15.207Z,1.90
2019-02-07T02:27:02.163Z,1.90
2019-02-07T02:29:49.008Z,2.00
2019-02-07T02:32:35.660Z,2.00
2019-02-07T02:35:22.877Z,1.80
2019-02-07T02:38:09.977Z,1.80
2019-02-07T02:40:56.466Z,1.70
2019-02-07T02:43:43.575Z,1.80
2019-02-07T02:46:30.576Z,1.90
2019-02-07T02:49:17.856Z,2.00
2019-02-07T02:52:04.653Z,1.90
2019-02-07T02:54:53.180Z,2.10
2019-02-07T02:57:40.492Z,2.10
2019-02-07T03:04:06.890Z,2.10
2019-02-07T03:07:12.570Z,2.00
2019-02-07T03:10:18.589Z,2.10
2019-02-07T03:13:20.080Z,2.00
2019-02-07T03:16:26.952Z,2.20
2019-02-07T03:19:33.123Z,2.20
2019-02-07T03:22:33.843Z,2.20
2019-02-07T03:28:43.008Z,2.10
2019-02-07T03:31:42.603Z,2.00
2019-02-07T03:34:48.812Z,2.00
2019-02-07T03:37:41.606Z,2.00
2019-02-07T03:40:47.267Z,2.00
2019-02-07T03:43:53.296Z,2.00
2019-02-07T03:46:58.888Z,1.90
2019-02-07T03:50:00.003Z,1.90
2019-02-07T03:53:06.291Z,1.90
2019-02-07T03:56:18.443Z,1.70
2019-02-07T03:59:24.656Z,1.80
2019-02-07T04:02:26.573Z,1.90
2019-02-07T04:05:59.713Z,1.80
2019-02-07T04:08:56.858Z,1.70
2019-02-07T04:12:02.291Z,1.80
2019-02-07T04:15:08.100Z,1.90
2019-02-07T04:18:14.097Z,1.70
2019-02-07T04:21:15.495Z,1.80
2019-02-07T04:24:20.805Z,1.80
2019-02-07T04:27:26.745Z,1.90
2019-02-07T04:30:28.992Z,1.70
2019-02-07T04:33:35.210Z,1.60
2019-02-07T04:36:41.531Z,1.30
2019-02-07T04:39:49.684Z,1.10
2019-02-07T04:42:49.658Z,1.20
2019-02-07T04:45:55.494Z,1.50
2019-02-07T04:49:01.509Z,1.60
2019-02-07T04:52:07.105Z,1.70
2019-02-07T04:55:12.731Z,1.70
2019-02-07T04:58:29.706Z,1.60
2019-02-07T05:01:35.560Z,1.70
2019-02-07T05:04:41.079Z,1.70
2019-02-07T05:07:46.831Z,1.60
2019-02-07T05:10:53.421Z,1.50
2019-02-07T05:13:53.638Z,1.40
2019-02-07T05:16:59.145Z,1.50
2019-02-07T05:20:08.413Z,1.60
2019-02-07T05:23:14.123Z,1.70
2019-02-07T05:26:19.929Z,1.60
2019-02-07T05:29:26.086Z,1.60
2019-02-07T05:32:36.090Z,1.50
2019-02-07T05:36:01.475Z,1.30
2019-02-07T05:39:01.608Z,1.30
2019-02-07T05:42:09.058Z,1.40
2019-02-07T05:45:20.879Z,1.40
2019-02-07T05:48:26.718Z,1.50
2019-02-07T05:51:32.146Z,1.70
2019-02-07T05:54:37.798Z,1.70
2019-02-07T05:57:43.360Z,1.80
2019-02-07T06:00:54.930Z,2.10
2019-02-07T06:03:50.723Z,2.40
2019-02-07T06:06:56.307Z,2.90
2019-02-07T06:09:52.197Z,3.40
2019-02-07T06:13:22.262Z,3.80
2019-02-07T06:16:27.996Z,4.10
2019-02-07T06:19:33.959Z,4.40
2019-02-07T06:22:45.347Z,4.60
2019-02-07T06:25:48.931Z,4.80
2019-02-07T06:28:49.339Z,5.10
2019-02-07T06:31:55.105Z,5.30
2019-02-07T06:35:00.966Z,5.60
2019-02-07T06:38:00.703Z,5.70
2019-02-07T06:41:06.256Z,5.70
2019-02-07T06:44:12.404Z,5.90
2019-02-07T06:47:17.668Z,6.00
2019-02-07T06:50:26.619Z,6.30
2019-02-07T06:53:35.603Z,6.30
2019-02-07T06:56:41.511Z,6.20
2019-02-07T06:59:47.600Z,6.30
2019-02-07T07:02:53.280Z,6.30
2019-02-07T07:05:54.619Z,5.30
2019-02-07T07:08:49.728Z,4.80
2019-02-07T07:11:50.983Z,4.30
2019-02-07T07:15:14.974Z,4.10
2019-02-07T07:18:28.028Z,4.10
2019-02-07T07:21:33.360Z,4.30
2019-02-07T07:24:30.506Z,4.20
2019-02-07T07:27:32.560Z,4.30
2019-02-07T07:30:38.305Z,4.40
2019-02-07T07:33:39.541Z,4.60
2019-02-07T07:36:44.982Z,4.60
2019-02-07T07:39:39.688Z,4.60
2019-02-07T07:42:45.403Z,4.70
2019-02-07T07:45:51.559Z,4.70
2019-02-07T07:48:57.215Z,4.80
2019-02-07T07:52:03.195Z,4.80
2019-02-07T07:55:07.038Z,4.80
2019-02-07T07:58:02.151Z,4.80
2019-02-07T08:01:10.947Z,4.70
2019-02-07T08:04:08.311Z,4.60
2019-02-07T08:07:08.359Z,4.70
2019-02-07T08:13:36.003Z,4.70
2019-02-07T08:16:41.644Z,4.80
2019-02-07T08:19:47.628Z,4.80
2019-02-07T08:22:53.802Z,4.90
2019-02-07T08:25:59.824Z,4.90
2019-02-07T08:29:11.767Z,5.00
2019-02-07T08:32:17.208Z,5.20
2019-02-07T08:35:23.277Z,5.30
2019-02-07T08:38:32.075Z,5.50
2019-02-07T08:41:40.588Z,5.50
2019-02-07T08:44:45.985Z,5.70
2019-02-07T08:47:58.430Z,5.70
2019-02-07T08:50:58.824Z,5.80
2019-02-07T08:54:04.410Z,5.80
2019-02-07T08:57:09.771Z,6.00
2019-02-07T09:00:04.476Z,6.10
2019-02-07T09:03:10.624Z,6.30
2019-02-07T09:06:14.392Z,6.50
2019-02-07T09:09:20.388Z,6.60
2019-02-07T09:12:18.218Z,6.70
2019-02-07T09:15:24.143Z,6.80
2019-02-07T09:18:30.187Z,6.80
2019-02-07T09:21:35.543Z,6.70
2019-02-07T09:24:41.452Z,6.80
2019-02-07T09:27:47.588Z,6.80
2019-02-07T09:30:53.380Z,7.00
2019-02-07T09:33:59.452Z,7.00
2019-02-07T09:37:05.921Z,7.00
2019-02-07T09:40:12.096Z,7.10
2019-02-07T09:43:18.154Z,7.20
2019-02-07T09:46:25.711Z,7.30
2019-02-07T09:49:31.032Z,7.30
2019-02-07T09:52:36.478Z,7.40
2019-02-07T09:55:41.893Z,7.40
2019-02-07T09:58:47.580Z,7.50
2019-02-07T10:01:43.115Z,7.50
2019-02-07T10:04:49.264Z,7.50
2019-02-07T10:07:54.616Z,7.50
2019-02-07T10:11:00.299Z,7.60
2019-02-07T10:14:05.692Z,7.60
2019-02-07T10:17:11.464Z,7.70
2019-02-07T10:20:16.751Z,7.70
2019-02-07T10:23:25.996Z,7.70
2019-02-07T10:26:46.151Z,7.70
2019-02-07T10:29:57.784Z,7.80
2019-02-07T10:33:03.434Z,7.80
2019-02-07T10:36:09.180Z,7.80
2019-02-07T10:39:15.056Z,7.90
2019-02-07T10:42:21.228Z,7.80
2019-02-07T10:45:27.215Z,8.00
2019-02-07T10:48:44.009Z,8.00
2019-02-07T10:51:40.401Z,8.00
2019-02-07T10:54:46.372Z,8.00
2019-02-07T10:57:49.048Z,8.00
2019-02-07T11:01:07.543Z,8.10
2019-02-07T11:04:12.960Z,8.10
2019-02-07T11:07:18.903Z,8.20
2019-02-07T11:10:24.895Z,8.20
2019-02-07T11:13:30.844Z,8.20
2019-02-07T11:16:36.378Z,8.30
2019-02-07T11:19:36.705Z,8.30
2019-02-07T11:22:55.240Z,8.30
2019-02-07T11:26:01.476Z,8.30
2019-02-07T11:29:07.489Z,8.30
2019-02-07T11:32:12.985Z,8.30
2019-02-07T11:35:07.719Z,8.40
2019-02-07T11:38:13.232Z,8.30
2019-02-07T11:41:12.591Z,8.40
2019-02-07T11:44:07.366Z,8.40
2019-02-07T11:47:13.445Z,8.30
2019-02-07T11:50:25.074Z,8.20
2019-02-07T11:53:27.089Z,8.30
2019-02-07T11:56:32.576Z,8.30
2019-02-07T11:59:38.787Z,8.30
2019-02-07T12:02:44.175Z,8.20
2019-02-07T12:05:49.788Z,8.30
2019-02-07T12:08:56.000Z,8.30
2019-02-07T12:12:03.889Z,8.40
2019-02-07T12:15:10.161Z,8.40
2019-02-07T12:18:15.959Z,8.30
2019-02-07T12:21:13.287Z,8.40
2019-02-07T12:24:13.684Z,8.40
2019-02-07T12:27:15.802Z,8.40
2019-02-07T12:30:25.041Z,8.40
2019-02-07T12:33:31.195Z,8.50
2019-02-07T12:36:37.169Z,8.50
2019-02-07T12:39:43.199Z,8.60
2019-02-07T12:42:48.880Z,8.50
2019-02-07T12:45:54.224Z,8.60
2019-02-07T12:48:56.651Z,8.60
2019-02-07T12:51:58.668Z,8.70
2019-02-07T12:54:56.387Z,8.70
2019-02-07T12:58:00.112Z,8.70
2019-02-07T13:01:12.271Z,8.80
2019-02-07T13:04:18.002Z,8.80
2019-02-07T13:07:23.779Z,8.90
2019-02-07T13:10:29.835Z,9.00
2019-02-07T13:13:35.670Z,8.90
2019-02-07T13:16:41.133Z,8.90
2019-02-07T13:19:46.461Z,9.00
2019-02-07T13:22:52.711Z,9.00
2019-02-07T13:25:52.211Z,9.20
2019-02-07T13:28:51.748Z,9.50
2019-02-07T13:31:49.427Z,9.40
2019-02-07T13:34:56.571Z,9.30
2019-02-07T13:38:02.450Z,9.30
2019-02-07T13:41:08.056Z,9.30
2019-02-07T13:44:14.052Z,9.30
2019-02-07T13:47:23.135Z,9.30
2019-02-07T13:50:28.998Z,9.30
2019-02-07T13:53:25.163Z,9.30
2019-02-07T13:56:30.841Z,9.30
2019-02-07T13:59:28.373Z,9.30
2019-02-07T14:02:40.038Z,9.30
2019-02-07T14:05:38.784Z,9.20
2019-02-07T14:08:44.436Z,9.20
2019-02-07T14:11:50.617Z,9.20
2019-02-07T14:15:02.703Z,9.20
2019-02-07T14:18:29.191Z,9.10
2019-02-07T14:21:35.184Z,9.10
2019-02-07T14:24:32.368Z,9.10
2019-02-07T14:27:59.203Z,9.10
2019-02-07T14:31:06.308Z,9.00
2019-02-07T14:34:12.457Z,9.00
2019-02-07T14:37:18.289Z,8.90
2019-02-07T14:40:24.139Z,9.00
2019-02-07T14:43:30.486Z,9.10
2019-02-07T14:46:35.992Z,9.10
2019-02-07T14:49:23.180Z,9.50
2019-02-07T14:52:09.899Z,9.40
2019-02-07T14:54:57.497Z,9.30
2019-02-07T14:57:44.616Z,9.10
2019-02-07T15:00:30.904Z,8.90
2019-02-07T15:03:17.615Z,8.90
2019-02-07T15:06:04.437Z,8.90
2019-02-07T15:08:51.398Z,8.90
2019-02-07T15:11:38.488Z,8.90
2019-02-07T15:14:25.155Z,8.90
2019-02-07T15:17:12.477Z,8.80
2019-02-07T15:19:59.602Z,8.90
2019-02-07T15:22:46.112Z,9.00
2019-02-07T15:25:32.928Z,8.90
2019-02-07T15:28:20.116Z,8.80
2019-02-07T15:31:07.199Z,9.00
2019-02-07T15:33:54.287Z,8.90
2019-02-07T15:36:41.609Z,8.90
2019-02-07T15:39:28.713Z,8.90
2019-02-07T15:42:15.663Z,9.00
2019-02-07T15:45:02.675Z,9.00
2019-02-07T15:47:50.208Z,9.00
2019-02-07T15:50:38.412Z,9.00
2019-02-07T15:53:27.193Z,9.00
2019-02-07T15:56:13.988Z,8.90
2019-02-07T16:02:17.383Z,9.00
2019-02-07T16:05:04.567Z,9.00
2019-02-07T16:07:51.597Z,8.90
2019-02-07T16:10:38.200Z,8.90
2019-02-07T16:13:25.163Z,8.90
2019-02-07T16:16:11.773Z,9.00
2019-02-07T16:18:58.103Z,8.90
2019-02-07T16:21:44.990Z,8.90
2019-02-07T16:24:31.944Z,8.80
2019-02-07T16:27:19.112Z,8.80
2019-02-07T16:30:06.104Z,8.80
2019-02-07T16:32:53.235Z,8.70
2019-02-07T16:35:40.400Z,8.80
2019-02-07T16:38:27.589Z,8.80
2019-02-07T16:41:14.225Z,8.80
2019-02-07T16:44:01.311Z,8.80
2019-02-07T16:46:47.667Z,8.80
2019-02-07T16:49:33.898Z,8.70
2019-02-07T16:52:20.196Z,8.70
2019-02-07T16:55:07.240Z,8.60
2019-02-07T16:57:53.799Z,8.60
2019-02-07T17:00:40.966Z,8.60
2019-02-07T17:03:27.755Z,8.60
2019-02-07T17:06:14.501Z,8.50
2019-02-07T17:09:01.854Z,8.60
2019-02-07T17:11:49.748Z,8.60
2019-02-07T17:14:35.944Z,8.60
2019-02-07T17:17:22.510Z,8.50
2019-02-07T17:20:14.738Z,8.50
2019-02-07T17:22:57.984Z,8.50
2019-02-07T17:25:45.168Z,8.50
2019-02-07T17:28:32.483Z,8.50
2019-02-07T17:31:19.646Z,8.50
2019-02-07T17:34:06.460Z,8.50
2019-02-07T17:36:52.951Z,8.50
2019-02-07T17:39:39.809Z,8.40
2019-02-07T17:42:26.407Z,8.30
2019-02-07T17:45:12.627Z,8.30
2019-02-07T17:47:58.909Z,8.30
2019-02-07T17:50:45.272Z,8.30
2019-02-07T17:53:32.259Z,8.10
2019-02-07T17:56:18.590Z,8.20
2019-02-07T17:59:06.293Z,8.20
2019-02-07T18:01:53.757Z,8.20
2019-02-07T18:04:40.772Z,8.10
2019-02-07T18:07:27.502Z,8.10
2019-02-07T18:10:13.919Z,8.00
2019-02-07T18:13:00.863Z,8.00
2019-02-07T18:15:47.433Z,8.00
2019-02-07T18:18:34.187Z,8.00
2019-02-07T18:21:20.716Z,7.80
2019-02-07T18:24:07.084Z,7.80
2019-02-07T18:26:53.636Z,7.90
2019-02-07T18:29:40.749Z,7.90
2019-02-07T18:32:27.326Z,7.90
2019-02-07T18:35:14.708Z,7.90
2019-02-07T18:38:01.605Z,7.90
2019-02-07T18:40:48.703Z,7.90
2019-02-07T18:43:35.556Z,7.80
2019-02-07T18:46:22.545Z,7.90
2019-02-07T18:49:09.664Z,7.80
2019-02-07T18:51:56.399Z,7.70
2019-02-07T18:54:43.394Z,7.70
2019-02-07T18:57:30.069Z,7.70
2019-02-07T19:00:17.064Z,7.70
2019-02-07T19:03:04.176Z,7.70
2019-02-07T19:05:39.059Z,7.70
2019-02-07T19:08:33.084Z,7.70
2019-02-07T19:11:19.596Z,7.80
2019-02-07T19:14:06.610Z,7.80
2019-02-07T19:16:53.769Z,7.80
2019-02-07T19:19:40.731Z,7.70
2019-02-07T19:22:27.572Z,7.70
2019-02-07T19:25:12.732Z,7.60
2019-02-07T19:28:06.908Z,7.60
2019-02-07T19:30:53.427Z,7.70
2019-02-07T19:33:40.361Z,7.70
2019-02-07T19:36:27.279Z,7.70
2019-02-07T19:39:14.204Z,7.60
2019-02-07T19:42:00.807Z,7.70
2019-02-07T19:44:47.675Z,7.60
2019-02-07T19:47:34.707Z,7.60
2019-02-07T19:50:21.628Z,7.60
2019-02-07T19:53:08.452Z,7.70
2019-02-07T19:55:55.448Z,7.70
2019-02-07T19:58:42.339Z,7.70
2019-02-07T20:01:29.263Z,7.60
2019-02-07T20:04:16.352Z,7.60
2019-02-07T20:07:03.184Z,7.60
2019-02-07T20:09:50.221Z,7.70
2019-02-07T20:12:36.611Z,7.70
2019-02-07T20:15:23.021Z,7.60
2019-02-07T20:18:09.482Z,7.60
2019-02-07T20:20:56.312Z,7.60
2019-02-07T20:23:43.047Z,7.70
2019-02-07T20:26:29.831Z,7.70
2019-02-07T20:29:16.663Z,7.70
2019-02-07T20:32:03.054Z,7.80
2019-02-07T20:34:49.579Z,7.80
2019-02-07T20:37:36.692Z,7.80
2019-02-07T20:40:23.204Z,7.80
2019-02-07T20:43:10.335Z,7.80
2019-02-07T20:45:56.909Z,7.70
2019-02-07T20:48:44.080Z,7.80
2019-02-07T20:51:31.016Z,7.80
2019-02-07T20:54:17.392Z,7.70
2019-02-07T20:57:03.912Z,7.70
2019-02-07T20:59:51.305Z,7.80
2019-02-07T21:02:38.128Z,7.80
2019-02-07T21:05:25.876Z,7.80
2019-02-07T21:08:12.939Z,7.80
2019-02-07T21:10:59.568Z,7.90
2019-02-07T21:13:46.659Z,7.90
2019-02-07T21:16:33.671Z,7.90
2019-02-07T21:19:20.312Z,7.90
2019-02-07T21:22:07.066Z,7.90
2019-02-07T21:24:53.879Z,7.90
2019-02-07T21:27:40.673Z,7.90
2019-02-07T21:30:27.444Z,7.90
2019-02-07T21:33:14.699Z,7.90
2019-02-07T21:36:01.372Z,7.90
2019-02-07T21:38:48.443Z,7.90
2019-02-07T21:41:35.500Z,7.90
2019-02-07T21:44:22.447Z,8.00
2019-02-07T21:47:10.013Z,8.00
2019-02-07T21:49:57.008Z,8.00
2019-02-07T21:52:43.350Z,8.00
2019-02-07T21:55:29.657Z,8.00
2019-02-07T21:58:16.050Z,8.10
2019-02-07T22:01:02.696Z,8.10
2019-02-07T22:03:50.464Z,8.10
2019-02-07T22:06:37.492Z,8.10
2019-02-07T22:09:24.781Z,8.10
2019-02-07T22:12:11.163Z,8.10
2019-02-07T22:14:58.213Z,8.20
2019-02-07T22:17:45.867Z,8.20
2019-02-07T22:20:33.011Z,8.20
2019-02-07T22:23:19.899Z,8.20
2019-02-07T22:26:07.339Z,8.20
2019-02-07T22:28:53.723Z,8.20
2019-02-07T22:31:40.888Z,8.30
2019-02-07T22:34:27.888Z,8.20
2019-02-07T22:37:14.779Z,8.20
2019-02-07T22:40:02.181Z,8.30
2019-02-07T22:42:48.519Z,8.30
2019-02-07T22:45:34.975Z,8.30
2019-02-07T22:48:22.080Z,8.30
2019-02-07T22:51:08.487Z,8.40
2019-02-07T22:53:55.612Z,8.30
2019-02-07T22:56:45.637Z,8.30
2019-02-07T22:59:30.395Z,8.30
2019-02-07T23:02:17.368Z,8.40
2019-02-07T23:05:04.245Z,8.40
2019-02-07T23:07:51.315Z,8.40
2019-02-07T23:10:38.435Z,8.30
2019-02-07T23:13:25.240Z,8.40
2019-02-07T23:16:13.685Z,8.40
2019-02-07T23:19:00.303Z,8.40
2019-02-07T23:21:47.083Z,8.40
2019-02-07T23:24:33.357Z,8.40
2019-02-07T23:27:19.941Z,8.40
2019-02-07T23:30:06.218Z,8.50
2019-02-07T23:32:53.656Z,8.50
2019-02-07T23:35:41.008Z,8.40
2019-02-07T23:38:27.825Z,8.50
2019-02-07T23:41:14.426Z,8.50
2019-02-07T23:44:00.803Z,8.50
2019-02-07T23:46:47.647Z,8.50
2019-02-07T23:49:33.929Z,8.50
2019-02-07T23:52:20.768Z,8.50
2019-02-07T23:55:07.351Z,8.50
2019-02-07T23:57:54.491Z,8.40
